Fort Myers, FL

12:49 AM EDT on August 27, 2016 (GMT -0400)
Page | | Change Station

Elev 16 ft 26.58 °N, 81.86 °W | Updated 56 minutes ago

Mostly Cloudy
Mostly Cloudy
77 °F
Feels Like 77 °F
N
4
Wind Variable Wind from NNE

Today
High -- | Low -- °F
--% Chance of Precip.
Yesterday
High -- | Low -- °F
Precip. -- in
Pressure 29.99 in
Visibility 10.0 miles
Clouds Scattered Clouds 3200 ft
Mostly Cloudy 11000 ft
Dew Point 74 °F
Humidity 90%
Rainfall 0.66 in
Snow Depth Not available.
7:05 AM 7:51 PM
Waning Crescent, 28% visible
METAR KFMY 270353Z AUTO 03003KT 10SM SCT032 BKN110 25/23 A2998 RMK AO2 LTG DSNT N AND NW RAE17 SLP155 P0000 T02500233
Pressure 29.99 in
Visibility 10.0 miles
Clouds Scattered Clouds 3200 ft
Mostly Cloudy 11000 ft
Dew Point 74 °F
Humidity 90%
Rainfall 0.66 in
Snow Depth Not available.
7:05 AM 7:51 PM
Waning Crescent, 28% visible
METAR KFMY 270353Z AUTO 03003KT 10SM SCT032 BKN110 25/23 A2998 RMK AO2 LTG DSNT N AND NW RAE17 SLP155 P0000 T02500233

10-Day Weather Forecast

Almanac

Astronomy

Aug. 27, 2016 Rise Set
Actual Time
Civil Twilight
Nautical Twilight
Astronomical Twilight
Moon
Length of Visible Light
Length of Day
Tomorrow will be .
, % of the Moon is Illuminated

Today's Extremes

State Highs State Lows

Community

WunderPhotos

Upload Photos

1,935,299 photos uploaded!

WunderBlog® & News

Nearby

Air Quality

  Air Quality AQ Index Pollutant
Not available.

Snow Depth

Station Depth Elevation

Earthquake Activity

City Distance Mag. Time & Date
Minimum magnitude displayed is 2.5.

Coastal Water Temperatures

Place Temperature

Stations

Nearby Weather Stations

Station Location Temp. Windchill Dew Point Humidity Wind Precip. Elev Updated Type
                   

Watches & Warnings

There are currently no watches in effect.